createdAt,value
2023-04-07T00:00:13.983Z,5.53
2023-04-07T00:02:44.405Z,5.40
2023-04-07T00:05:12.789Z,3.50
2023-04-07T00:07:48.914Z,4.17
2023-04-07T00:10:24.785Z,5.43
2023-04-07T00:12:53.030Z,4.97
2023-04-07T00:15:22.532Z,4.30
2023-04-07T00:17:50.633Z,5.53
2023-04-07T00:20:18.699Z,4.60
2023-04-07T00:22:46.734Z,5.13
2023-04-07T00:25:14.760Z,6.00
2023-04-07T00:27:42.792Z,4.47
2023-04-07T00:30:11.194Z,4.97
2023-04-07T00:32:40.797Z,4.77
2023-04-07T00:35:09.813Z,4.60
2023-04-07T00:37:37.934Z,5.73
2023-04-07T00:40:07.115Z,5.20
2023-04-07T00:42:35.474Z,5.03
2023-04-07T00:45:03.760Z,6.60
2023-04-07T00:47:32.116Z,4.90
2023-04-07T00:50:01.555Z,6.07
2023-04-07T00:52:30.212Z,5.23
2023-04-07T00:54:58.745Z,5.73
2023-04-07T00:57:27.440Z,5.30
2023-04-07T00:59:57.367Z,3.70
2023-04-07T01:02:34.280Z,4.97
2023-04-07T01:05:12.436Z,4.80
2023-04-07T01:07:51.240Z,4.90
2023-04-07T01:10:28.227Z,4.17
2023-04-07T01:13:03.315Z,5.27
2023-04-07T01:15:32.879Z,5.10
2023-04-07T01:18:08.561Z,4.90
2023-04-07T01:20:39.701Z,4.17
2023-04-07T01:23:09.121Z,5.90
2023-04-07T01:25:55.247Z,4.57
2023-04-07T01:28:56.760Z,5.00
2023-04-07T01:31:27.965Z,4.80
2023-04-07T01:33:57.800Z,4.60
2023-04-07T01:36:28.404Z,4.13
2023-04-07T01:38:57.255Z,5.37
2023-04-07T01:41:26.418Z,4.67
2023-04-07T01:43:55.950Z,5.37
2023-04-07T01:46:25.980Z,5.27
2023-04-07T01:48:54.557Z,4.57
2023-04-07T01:51:25.001Z,5.47
2023-04-07T01:53:54.268Z,4.60
2023-04-07T01:56:22.484Z,5.13
2023-04-07T01:58:50.555Z,4.43
2023-04-07T02:01:18.879Z,5.27
2023-04-07T02:03:54.110Z,3.87
2023-04-07T02:06:27.626Z,5.00
2023-04-07T02:09:00.241Z,5.07
2023-04-07T02:11:30.389Z,4.60
2023-04-07T02:13:59.912Z,4.23
2023-04-07T02:16:29.731Z,5.13
2023-04-07T02:18:59.829Z,5.63
2023-04-07T02:21:30.321Z,5.97
2023-04-07T02:24:01.588Z,3.73
2023-04-07T02:26:30.559Z,4.70
2023-04-07T02:28:58.625Z,5.73
2023-04-07T02:31:26.880Z,5.10
2023-04-07T02:33:55.159Z,4.60
2023-04-07T02:36:24.690Z,5.30
2023-04-07T02:38:52.771Z,3.23
2023-04-07T02:41:21.407Z,5.50
2023-04-07T02:43:49.594Z,5.00
2023-04-07T02:46:17.847Z,6.27
2023-04-07T02:48:46.155Z,4.80
2023-04-07T02:51:14.273Z,4.27
2023-04-07T02:53:43.639Z,3.60
2023-04-07T02:56:11.648Z,4.43
2023-04-07T02:58:39.761Z,4.37
2023-04-07T03:01:07.928Z,4.67
2023-04-07T03:03:36.209Z,5.13
2023-04-07T03:06:04.458Z,6.50
2023-04-07T03:08:32.499Z,5.40
2023-04-07T03:11:01.918Z,4.80
2023-04-07T03:13:30.845Z,4.27
2023-04-07T03:15:59.051Z,4.00
2023-04-07T03:18:27.072Z,4.33
2023-04-07T03:20:56.129Z,4.63
2023-04-07T03:23:24.705Z,4.70
2023-04-07T03:25:52.741Z,4.47
2023-04-07T03:28:22.346Z,5.37
2023-04-07T03:30:50.525Z,3.57
2023-04-07T03:33:18.645Z,4.80
2023-04-07T03:35:46.792Z,4.40
2023-04-07T03:38:14.919Z,4.87
2023-04-07T03:40:42.931Z,4.63
2023-04-07T03:43:14.121Z,4.53
2023-04-07T03:45:43.543Z,3.80
2023-04-07T03:48:12.208Z,4.10
2023-04-07T03:50:40.917Z,6.50
2023-04-07T03:53:09.384Z,6.20
2023-04-07T03:55:37.724Z,4.33
2023-04-07T03:58:05.898Z,5.70
2023-04-07T04:00:34.006Z,4.20
2023-04-07T04:03:03.778Z,4.40
2023-04-07T04:05:32.067Z,4.80
2023-04-07T04:08:00.165Z,4.90
2023-04-07T04:10:28.362Z,5.27
2023-04-07T04:12:56.724Z,4.40
2023-04-07T04:15:24.890Z,4.80
2023-04-07T04:17:53.015Z,4.60
2023-04-07T04:20:22.744Z,4.27
2023-04-07T04:22:50.782Z,4.80
2023-04-07T04:25:18.976Z,4.73
2023-04-07T04:27:47.047Z,4.50
2023-04-07T04:30:15.566Z,4.23
2023-04-07T04:32:46.649Z,4.97
2023-04-07T04:35:14.834Z,4.83
2023-04-07T04:37:44.247Z,5.30
2023-04-07T04:40:13.335Z,6.17
2023-04-07T04:42:41.583Z,4.80
2023-04-07T04:45:10.700Z,5.47
2023-04-07T04:47:39.696Z,6.10
2023-04-07T04:50:08.824Z,5.80
2023-04-07T04:52:38.170Z,5.33
2023-04-07T04:55:09.035Z,4.73
2023-04-07T04:57:37.090Z,5.13
2023-04-07T05:00:05.991Z,5.47
2023-04-07T05:02:34.214Z,6.20
2023-04-07T05:05:02.525Z,4.87
2023-04-07T05:07:31.436Z,4.30
2023-04-07T05:09:59.670Z,5.43
2023-04-07T05:12:29.077Z,4.47
2023-04-07T05:14:57.163Z,5.37
2023-04-07T05:17:25.454Z,5.40
2023-04-07T05:19:53.534Z,5.60
2023-04-07T05:22:21.549Z,5.80
2023-04-07T05:24:49.635Z,5.93
2023-04-07T05:27:17.738Z,4.47
2023-04-07T05:29:47.140Z,4.20
2023-04-07T05:32:15.595Z,5.53
2023-04-07T05:34:43.633Z,5.40
2023-04-07T05:37:11.775Z,5.63
2023-04-07T05:39:39.855Z,6.57
2023-04-07T05:42:07.935Z,6.13
2023-04-07T05:44:36.011Z,5.53
2023-04-07T05:47:08.820Z,5.23
2023-04-07T05:49:36.948Z,4.90
2023-04-07T05:52:05.983Z,4.47
2023-04-07T05:54:34.025Z,3.40
2023-04-07T05:57:02.350Z,4.90
2023-04-07T05:59:30.416Z,5.13
2023-04-07T06:01:58.506Z,4.30
2023-04-07T06:04:27.972Z,4.20
2023-04-07T06:06:56.039Z,5.43
2023-04-07T06:09:24.212Z,4.33
2023-04-07T06:11:52.244Z,5.60
2023-04-07T06:14:20.760Z,4.90
2023-04-07T06:16:48.877Z,4.57
2023-04-07T06:19:16.973Z,4.60
2023-04-07T06:21:46.387Z,7.10
2023-04-07T06:24:14.414Z,5.23
2023-04-07T06:26:42.513Z,6.20
2023-04-07T06:29:10.578Z,5.30
2023-04-07T06:31:38.806Z,5.80
2023-04-07T06:34:06.972Z,4.43
2023-04-07T06:36:35.499Z,5.43
2023-04-07T06:39:05.214Z,5.73
2023-04-07T06:41:33.258Z,3.80
2023-04-07T06:44:02.429Z,4.83
2023-04-07T06:46:30.550Z,4.50
2023-04-07T06:48:58.638Z,6.30
2023-04-07T06:51:27.726Z,6.10
2023-04-07T06:53:55.767Z,6.87
2023-04-07T06:56:26.166Z,6.53
2023-04-07T06:58:54.294Z,5.60
2023-04-07T07:01:22.407Z,5.93
2023-04-07T07:03:50.675Z,5.77
2023-04-07T07:06:18.985Z,4.77
2023-04-07T07:08:47.003Z,5.40
2023-04-07T07:11:15.006Z,5.70
2023-04-07T07:13:45.171Z,5.00
2023-04-07T07:16:13.807Z,5.53
2023-04-07T07:18:41.925Z,5.27
2023-04-07T07:21:10.099Z,5.40
2023-04-07T07:23:38.267Z,5.13
2023-04-07T07:26:06.440Z,6.03
2023-04-07T07:28:34.482Z,6.27
2023-04-07T07:31:10.500Z,7.43
2023-04-07T07:33:40.482Z,5.50
2023-04-07T07:36:09.223Z,5.67
2023-04-07T07:38:37.858Z,4.50
2023-04-07T07:41:07.155Z,5.33
2023-04-07T07:43:35.433Z,4.97
2023-04-07T07:46:04.919Z,4.80
2023-04-07T07:48:33.037Z,4.53
2023-04-07T07:51:01.323Z,4.23
2023-04-07T07:53:29.432Z,4.13
2023-04-07T07:55:57.450Z,4.53
2023-04-07T07:58:25.593Z,4.47
2023-04-07T08:00:53.657Z,4.27
2023-04-07T08:03:23.199Z,4.97
2023-04-07T08:05:51.614Z,6.23
2023-04-07T08:08:19.707Z,4.60
2023-04-07T08:10:48.896Z,4.33
2023-04-07T08:13:17.030Z,4.70
2023-04-07T08:15:45.204Z,3.57
2023-04-07T08:18:13.345Z,3.90
2023-04-07T08:20:42.756Z,5.23
2023-04-07T08:23:10.844Z,3.53
2023-04-07T08:25:40.014Z,3.63
2023-04-07T08:28:08.224Z,3.20
2023-04-07T08:30:36.446Z,4.00
2023-04-07T08:33:06.737Z,4.27
2023-04-07T08:35:34.891Z,4.33
2023-04-07T08:38:05.708Z,3.10
2023-04-07T08:40:34.749Z,3.80
2023-04-07T08:43:04.627Z,3.43
2023-04-07T08:45:34.142Z,3.63
2023-04-07T08:48:08.919Z,3.40
2023-04-07T08:50:38.057Z,3.40
2023-04-07T08:53:10.177Z,3.30
2023-04-07T08:55:38.292Z,4.30
2023-04-07T08:58:06.899Z,3.47
2023-04-07T09:00:34.999Z,3.80
2023-04-07T09:03:04.666Z,3.78
2023-04-07T09:05:33.693Z,4.07
2023-04-07T09:08:03.077Z,3.80
2023-04-07T09:10:32.498Z,3.93
2023-04-07T09:13:00.762Z,3.10
2023-04-07T09:15:32.256Z,3.57
2023-04-07T09:18:00.660Z,3.40
2023-04-07T09:20:28.734Z,3.80
2023-04-07T09:22:56.784Z,5.30
2023-04-07T09:25:27.259Z,3.50
2023-04-07T09:27:58.544Z,4.60
2023-04-07T09:30:27.360Z,4.43
2023-04-07T09:32:55.842Z,3.10
2023-04-07T09:35:24.833Z,3.37
2023-04-07T09:38:06.665Z,3.40
2023-04-07T09:40:34.968Z,3.63
2023-04-07T09:43:05.424Z,2.40
2023-04-07T09:45:36.613Z,4.00
2023-04-07T09:48:09.008Z,2.27
2023-04-07T09:50:38.187Z,2.70
2023-04-07T09:53:06.282Z,3.17
2023-04-07T09:55:35.021Z,3.20
2023-04-07T09:58:07.509Z,3.37
2023-04-07T10:00:37.013Z,2.80
2023-04-07T10:03:05.892Z,3.87
2023-04-07T10:05:35.436Z,2.67
2023-04-07T10:08:03.854Z,2.83
2023-04-07T10:10:32.876Z,3.37
2023-04-07T10:13:01.303Z,3.20
2023-04-07T10:15:32.106Z,3.80
2023-04-07T10:18:01.500Z,3.77
2023-04-07T10:20:31.010Z,3.37
2023-04-07T10:23:08.517Z,4.00
2023-04-07T10:25:37.453Z,3.40
2023-04-07T10:28:08.764Z,3.50
2023-04-07T10:30:39.111Z,2.50
2023-04-07T10:33:07.381Z,2.97
2023-04-07T10:36:04.715Z,2.87
2023-04-07T10:38:32.916Z,2.53
2023-04-07T10:41:01.228Z,3.40
2023-04-07T10:43:40.055Z,3.20
2023-04-07T10:46:09.555Z,2.57
2023-04-07T10:48:37.799Z,3.50
2023-04-07T10:51:16.767Z,3.77
2023-04-07T10:54:23.793Z,2.60
2023-04-07T10:57:12.962Z,3.20
2023-04-07T10:59:46.892Z,2.93
2023-04-07T11:02:40.679Z,2.97
2023-04-07T11:05:09.181Z,1.80
2023-04-07T11:07:49.807Z,2.07
2023-04-07T11:10:19.315Z,1.77
2023-04-07T11:13:04.090Z,2.20
2023-04-07T11:15:32.205Z,2.30
2023-04-07T11:18:17.349Z,2.37
2023-04-07T11:20:50.687Z,3.43
2023-04-07T11:23:20.050Z,2.37
2023-04-07T11:25:49.891Z,3.30
2023-04-07T11:28:18.337Z,2.90
2023-04-07T11:30:49.651Z,3.40
2023-04-07T11:33:21.383Z,2.00
2023-04-07T11:35:55.637Z,2.93
2023-04-07T11:38:25.146Z,2.10
2023-04-07T11:40:53.490Z,2.00
2023-04-07T11:43:22.903Z,2.90
2023-04-07T11:46:06.996Z,2.50
2023-04-07T11:48:37.653Z,2.37
2023-04-07T11:51:06.795Z,2.17
2023-04-07T11:53:37.842Z,2.83
2023-04-07T11:56:09.609Z,3.93
2023-04-07T11:58:38.780Z,3.83
2023-04-07T12:01:08.999Z,3.10
2023-04-07T12:03:39.130Z,3.47
2023-04-07T12:06:08.363Z,1.90
2023-04-07T12:08:41.566Z,3.20
2023-04-07T12:11:10.508Z,2.60
2023-04-07T12:13:39.105Z,2.40
2023-04-07T12:16:07.541Z,2.83
2023-04-07T12:18:36.537Z,2.30
2023-04-07T12:21:06.446Z,1.60
2023-04-07T12:23:34.552Z,2.37
2023-04-07T12:26:02.816Z,2.80
2023-04-07T12:28:31.107Z,1.63
2023-04-07T12:30:59.161Z,1.87
2023-04-07T12:33:27.282Z,1.70
2023-04-07T12:35:55.546Z,1.50
2023-04-07T12:38:25.600Z,1.43
2023-04-07T12:40:54.022Z,2.20
2023-04-07T12:43:22.052Z,1.37
2023-04-07T12:45:50.098Z,1.57
2023-04-07T12:48:18.756Z,1.70
2023-04-07T12:50:46.877Z,2.40
2023-04-07T12:53:14.937Z,2.53
2023-04-07T12:55:44.309Z,1.80
2023-04-07T12:58:13.556Z,2.50
2023-04-07T13:00:42.572Z,1.70
2023-04-07T13:03:11.071Z,2.10
2023-04-07T13:05:39.381Z,2.47
2023-04-07T13:08:07.965Z,3.20
2023-04-07T13:10:36.046Z,2.83
2023-04-07T13:13:05.530Z,2.67
2023-04-07T13:15:33.631Z,3.33
2023-04-07T13:18:01.933Z,2.87
2023-04-07T13:20:30.568Z,3.00
2023-04-07T13:23:07.733Z,3.03
2023-04-07T13:25:37.712Z,2.73
2023-04-07T13:28:07.334Z,2.50
2023-04-07T13:30:35.454Z,1.97
2023-04-07T13:33:03.660Z,2.77
2023-04-07T13:35:35.756Z,2.10
2023-04-07T13:38:04.363Z,1.57
2023-04-07T13:40:32.603Z,1.90
2023-04-07T13:43:00.961Z,1.50
2023-04-07T13:45:30.456Z,1.73
2023-04-07T13:47:58.682Z,2.50
2023-04-07T13:50:27.129Z,2.03
2023-04-07T13:52:55.276Z,2.07
2023-04-07T13:55:23.293Z,1.93
2023-04-07T13:57:51.470Z,1.83
2023-04-07T14:00:20.683Z,1.70
2023-04-07T14:02:50.326Z,2.00
2023-04-07T14:05:18.550Z,1.80
2023-04-07T14:07:46.592Z,2.43
2023-04-07T14:10:14.697Z,2.60
2023-04-07T14:12:42.702Z,2.00
2023-04-07T14:15:12.093Z,2.93
2023-04-07T14:17:40.191Z,2.60
2023-04-07T14:20:10.827Z,2.80
2023-04-07T14:22:38.915Z,2.83
2023-04-07T14:25:08.060Z,2.70
2023-04-07T14:27:36.243Z,3.10
2023-04-07T14:30:04.617Z,2.70
2023-04-07T14:32:33.405Z,1.80
2023-04-07T14:35:01.807Z,3.03
2023-04-07T14:37:36.631Z,2.60
2023-04-07T14:40:05.122Z,2.47
2023-04-07T14:42:33.550Z,2.13
2023-04-07T14:45:04.510Z,2.60
2023-04-07T14:47:32.611Z,2.87
2023-04-07T14:50:00.708Z,3.17
2023-04-07T14:52:30.153Z,2.57
2023-04-07T14:55:00.258Z,2.93
2023-04-07T14:57:28.716Z,4.03
2023-04-07T14:59:56.801Z,4.10
2023-04-07T15:02:25.079Z,3.20
2023-04-07T15:04:53.275Z,2.97
2023-04-07T15:07:21.447Z,3.30
2023-04-07T15:09:50.889Z,3.20
2023-04-07T15:12:19.335Z,3.67
2023-04-07T15:14:47.439Z,3.10
2023-04-07T15:17:15.486Z,3.17
2023-04-07T15:19:44.212Z,3.07
2023-04-07T15:22:12.339Z,3.83
2023-04-07T15:24:40.535Z,3.93
2023-04-07T15:27:10.758Z,4.10
2023-04-07T15:29:38.919Z,3.63
2023-04-07T15:32:07.280Z,3.20
2023-04-07T15:34:35.377Z,2.97
2023-04-07T15:37:04.149Z,4.43
2023-04-07T15:39:32.301Z,3.90
2023-04-07T15:42:00.727Z,3.60
2023-04-07T15:44:33.458Z,3.50
2023-04-07T15:47:01.708Z,3.73
2023-04-07T15:49:29.919Z,5.20
2023-04-07T15:51:57.909Z,3.90
2023-04-07T15:54:26.801Z,3.50
2023-04-07T15:56:54.849Z,3.60
2023-04-07T15:59:22.996Z,3.87
2023-04-07T16:01:52.935Z,4.43
2023-04-07T16:04:21.192Z,4.37
2023-04-07T16:06:49.314Z,3.83
2023-04-07T16:09:17.462Z,4.70
2023-04-07T16:11:45.647Z,5.23
2023-04-07T16:14:13.737Z,3.60
2023-04-07T16:16:44.469Z,4.70
2023-04-07T16:19:14.605Z,5.40
2023-04-07T16:21:42.734Z,4.37
2023-04-07T16:24:10.772Z,4.23
2023-04-07T16:26:38.810Z,4.70
2023-04-07T16:29:06.847Z,3.93
2023-04-07T16:31:34.937Z,4.40
2023-04-07T16:34:03.037Z,5.83
2023-04-07T16:36:32.463Z,4.87
2023-04-07T16:39:00.576Z,5.20
2023-04-07T16:41:28.687Z,5.33
2023-04-07T16:43:56.967Z,4.60
2023-04-07T16:46:28.080Z,4.00
2023-04-07T16:48:56.285Z,4.87
2023-04-07T16:51:24.806Z,5.00
2023-04-07T16:53:54.270Z,4.00
2023-04-07T16:56:24.105Z,3.63
2023-04-07T16:58:52.657Z,4.80
2023-04-07T17:01:20.795Z,6.03
2023-04-07T17:03:49.434Z,4.47
2023-04-07T17:06:17.678Z,3.73
2023-04-07T17:08:45.740Z,4.97
2023-04-07T17:11:15.425Z,5.60
2023-04-07T17:13:43.635Z,5.10
2023-04-07T17:16:14.897Z,4.13
2023-04-07T17:18:43.100Z,4.80
2023-04-07T17:21:11.141Z,3.80
2023-04-07T17:23:39.434Z,3.83
2023-04-07T17:26:07.485Z,4.00
2023-04-07T17:28:36.945Z,5.07
2023-04-07T17:31:05.096Z,4.50
2023-04-07T17:33:33.477Z,4.00
2023-04-07T17:36:03.586Z,4.53
2023-04-07T17:38:32.182Z,4.23
2023-04-07T17:41:01.762Z,3.60
2023-04-07T17:43:29.956Z,3.30
2023-04-07T17:45:59.441Z,4.03
2023-04-07T17:48:27.689Z,3.53
2023-04-07T17:50:56.296Z,4.50
2023-04-07T17:53:24.508Z,3.20
2023-04-07T17:55:52.629Z,4.20
2023-04-07T17:58:21.192Z,3.90
2023-04-07T18:00:50.529Z,3.77
2023-04-07T18:03:20.166Z,3.07
2023-04-07T18:05:49.169Z,4.80
2023-04-07T18:08:17.312Z,2.90
2023-04-07T18:10:45.478Z,4.17
2023-04-07T18:13:13.552Z,4.43
2023-04-07T18:15:41.649Z,3.50
2023-04-07T18:19:05.931Z,3.53
2023-04-07T18:21:38.341Z,3.90
2023-04-07T18:27:06.925Z,4.50
2023-04-07T18:29:49.965Z,3.80
2023-04-07T18:32:58.196Z,3.83
2023-04-07T18:55:23.400Z,3.30
2023-04-07T18:57:51.454Z,3.67
2023-04-07T19:00:19.567Z,3.70
2023-04-07T19:02:48.190Z,5.10
2023-04-07T19:05:16.549Z,5.67
2023-04-07T19:07:44.606Z,3.90
2023-04-07T19:10:12.700Z,4.50
2023-04-07T19:17:23.765Z,3.27
2023-04-07T19:19:52.077Z,4.90
2023-04-07T19:22:20.370Z,3.40
2023-04-07T19:24:48.452Z,3.90
2023-04-07T19:27:17.176Z,3.87
2023-04-07T19:29:45.351Z,4.30
2023-04-07T19:36:17.442Z,4.83
2023-04-07T19:38:45.587Z,4.33
2023-04-07T19:41:13.677Z,4.17
2023-04-07T19:43:42.566Z,4.80
2023-04-07T19:46:10.691Z,4.17
2023-04-07T19:48:40.066Z,4.70
2023-04-07T19:51:08.117Z,4.10
2023-04-07T19:53:37.621Z,3.53
2023-04-07T19:56:06.310Z,3.13
2023-04-07T19:58:35.339Z,3.20
2023-04-07T20:01:04.521Z,3.47
2023-04-07T20:03:33.295Z,3.93
2023-04-07T20:06:01.924Z,4.20
2023-04-07T20:08:30.084Z,4.00
2023-04-07T20:10:59.597Z,5.00
2023-04-07T20:13:28.092Z,4.20
2023-04-07T20:15:56.413Z,4.40
2023-04-07T20:18:24.552Z,4.63
2023-04-07T20:20:59.941Z,4.40
2023-04-07T20:23:28.252Z,3.83
2023-04-07T20:25:56.552Z,4.90
2023-04-07T20:28:26.075Z,3.80
2023-04-07T20:30:54.340Z,3.97
2023-04-07T20:33:22.561Z,3.40
2023-04-07T20:35:50.908Z,4.30
2023-04-07T20:38:20.197Z,3.67
2023-04-07T20:40:48.305Z,4.30
2023-04-07T20:43:18.256Z,3.30
2023-04-07T20:45:47.997Z,3.50
2023-04-07T20:48:18.342Z,3.20
2023-04-07T20:50:46.455Z,3.73
2023-04-07T20:53:14.558Z,4.40
2023-04-07T20:55:43.224Z,3.77
2023-04-07T20:58:11.586Z,4.30
2023-04-07T21:00:39.749Z,3.17
2023-04-07T21:03:09.438Z,4.77
2023-04-07T21:05:37.836Z,4.13
2023-04-07T21:08:06.178Z,3.80
2023-04-07T21:10:34.275Z,3.17
2023-04-07T21:13:02.449Z,2.83
2023-04-07T21:15:30.732Z,3.67
2023-04-07T21:17:58.995Z,3.40
2023-04-07T21:20:28.463Z,3.50
2023-04-07T21:22:56.554Z,4.93
2023-04-07T21:25:24.760Z,3.70
2023-04-07T21:27:52.925Z,3.57
2023-04-07T21:30:22.464Z,5.00
2023-04-07T21:32:50.615Z,3.70
2023-04-07T21:35:19.789Z,4.57
2023-04-07T21:37:49.303Z,3.67
2023-04-07T21:40:17.441Z,3.60
2023-04-07T21:42:45.524Z,3.80
2023-04-07T21:45:13.850Z,3.97
2023-04-07T21:47:41.933Z,3.87
2023-04-07T21:50:10.672Z,4.43
2023-04-07T21:52:38.763Z,4.10
2023-04-07T21:55:10.050Z,3.93
2023-04-07T21:57:38.240Z,3.87
2023-04-07T22:00:08.314Z,3.50
2023-04-07T22:02:36.690Z,4.17
2023-04-07T22:05:05.203Z,5.40
2023-04-07T22:07:33.628Z,4.00
2023-04-07T22:10:01.699Z,4.33
2023-04-07T22:12:31.130Z,4.33
2023-04-07T22:14:59.135Z,3.73
2023-04-07T22:17:27.358Z,4.50
2023-04-07T22:19:55.739Z,3.50
2023-04-07T22:22:23.884Z,3.70
2023-04-07T22:24:51.969Z,4.03
2023-04-07T22:27:20.046Z,4.40
2023-04-07T22:29:49.481Z,4.57
2023-04-07T22:32:17.519Z,4.90
2023-04-07T22:34:45.693Z,3.83
2023-04-07T22:37:13.896Z,3.60
2023-04-07T22:39:41.903Z,4.07
2023-04-07T22:42:10.009Z,5.30
2023-04-07T22:44:38.041Z,4.87
2023-04-07T22:47:07.629Z,5.30
2023-04-07T22:49:35.881Z,4.80
2023-04-07T22:52:03.956Z,6.00
2023-04-07T22:54:32.127Z,5.87
2023-04-07T22:57:01.734Z,5.20
2023-04-07T22:59:29.850Z,5.40
2023-04-07T23:01:58.070Z,6.00
2023-04-07T23:04:27.990Z,4.97
2023-04-07T23:06:56.197Z,4.30
2023-04-07T23:09:24.296Z,5.80
2023-04-07T23:11:52.385Z,5.40
2023-04-07T23:14:20.489Z,5.13
2023-04-07T23:16:48.598Z,7.50
2023-04-07T23:19:17.211Z,5.83
2023-04-07T23:21:46.707Z,6.40
2023-04-07T23:24:14.752Z,6.13
2023-04-07T23:26:42.832Z,6.13
2023-04-07T23:29:10.977Z,6.60
2023-04-07T23:31:39.094Z,6.60
2023-04-07T23:34:07.201Z,6.60
2023-04-07T23:36:35.246Z,5.53
2023-04-07T23:39:04.806Z,8.10
2023-04-07T23:41:33.033Z,5.77
2023-04-07T23:44:01.469Z,6.70
2023-04-07T23:46:29.576Z,5.13
2023-04-07T23:48:57.715Z,5.73
2023-04-07T23:51:26.525Z,5.93
2023-04-07T23:53:54.670Z,5.90
2023-04-07T23:56:24.266Z,5.87
2023-04-07T23:58:52.411Z,6.73
